Time;durP1;ratioP1;P1;durP2;ratioP2;P2;SDS_P1;SDS_P2;PMS_P1;PMS_P2;Temp;Humidity;BMP_temperature;BMP_pressure;BME280_temperature;BME280_humidity;BME280_pressure;Samples;Min_cycle;Max_cycle;Signal;HPM_P1;HPM_P2
2023/02/03 00:02:25;;;;;;;3.13;1.67;;;;;;;;;;5096253;28;20206;-71
2023/02/03 00:04:53;;;;;;;3.40;2.50;;;;;;;;;;5097638;28;20638;-72
2023/02/03 00:07:20;;;;;;;3.70;1.70;;;;;;;;;;5099159;28;20232;-71
2023/02/03 00:09:48;;;;;;;3.50;1.73;;;;;;;;;;5101080;28;20247;-70
2023/02/03 00:12:18;;;;;;;4.03;1.87;;;;;;;;;;5100338;28;20205;-71
2023/02/03 00:14:45;;;;;;;3.47;1.77;;;;;;;;;;5100187;28;20212;-71
2023/02/03 00:17:14;;;;;;;4.43;1.87;;;;;;;;;;5100290;28;20204;-71
2023/02/03 00:19:42;;;;;;;3.73;1.40;;;;;;;;;;5097334;28;20292;-71
2023/02/03 00:22:10;;;;;;;3.93;1.43;;;;;;;;;;5099919;28;20198;-71
2023/02/03 00:24:37;;;;;;;4.57;1.60;;;;;;;;;;5100096;28;20221;-71
2023/02/03 00:27:06;;;;;;;6.77;1.90;;;;;;;;;;5099962;28;20221;-71
2023/02/03 00:29:35;;;;;;;3.97;1.63;;;;;;;;;;5099646;28;20206;-71
2023/02/03 00:32:03;;;;;;;6.97;1.97;;;;;;;;;;5098686;28;20197;-71
2023/02/03 00:34:32;;;;;;;5.13;2.07;;;;;;;;;;5099476;28;20314;-71
2023/02/03 00:36:59;;;;;;;8.57;2.50;;;;;;;;;;5099831;28;20201;-71
2023/02/03 00:39:27;;;;;;;5.90;1.90;;;;;;;;;;5099764;28;20255;-70
2023/02/03 00:41:55;;;;;;;4.27;1.83;;;;;;;;;;5099344;28;20598;-72
2023/02/03 00:44:23;;;;;;;2.67;1.70;;;;;;;;;;5099176;28;20222;-70
2023/02/03 00:46:53;;;;;;;3.20;1.60;;;;;;;;;;5099333;28;20279;-70
2023/02/03 00:49:21;;;;;;;2.33;1.60;;;;;;;;;;5096829;28;20201;-71
2023/02/03 00:51:49;;;;;;;3.27;1.70;;;;;;;;;;5099621;28;20206;-71
2023/02/03 00:54:17;;;;;;;4.33;1.53;;;;;;;;;;5099264;28;20217;-70
2023/02/03 00:56:45;;;;;;;3.03;1.50;;;;;;;;;;5099456;28;20204;-72
2023/02/03 00:59:13;;;;;;;4.27;1.77;;;;;;;;;;5098619;28;20209;-70
2023/02/03 01:01:40;;;;;;;2.80;1.50;;;;;;;;;;5100197;28;20213;-70
2023/02/03 01:04:10;;;;;;;4.03;1.60;;;;;;;;;;5100063;28;20233;-71
2023/02/03 01:06:40;;;;;;;4.17;1.93;;;;;;;;;;5100238;28;20267;-69
2023/02/03 01:09:07;;;;;;;3.27;1.90;;;;;;;;;;5100418;28;20726;-70
2023/02/03 01:11:35;;;;;;;6.33;2.20;;;;;;;;;;5100441;28;20206;-71
2023/02/03 01:14:03;;;;;;;4.70;1.80;;;;;;;;;;5100193;28;20251;-71
2023/02/03 01:16:35;;;;;;;2.30;1.83;;;;;;;;;;5099659;28;20213;-71
2023/02/03 01:19:03;;;;;;;2.80;1.70;;;;;;;;;;5100085;28;20212;-71
2023/02/03 01:21:32;;;;;;;2.43;1.33;;;;;;;;;;5099868;28;20209;-71
2023/02/03 01:24:00;;;;;;;4.93;1.77;;;;;;;;;;5099773;28;20232;-70
2023/02/03 01:26:28;;;;;;;3.00;1.73;;;;;;;;;;5099790;28;20549;-72
2023/02/03 01:28:57;;;;;;;4.33;1.50;;;;;;;;;;5100209;28;20205;-71
2023/02/03 01:31:26;;;;;;;3.90;2.17;;;;;;;;;;5099793;28;20220;-71
2023/02/03 01:33:54;;;;;;;2.03;1.30;;;;;;;;;;5099889;28;20225;-71
2023/02/03 01:36:24;;;;;;;5.47;1.27;;;;;;;;;;5099410;28;20237;-71
2023/02/03 01:38:54;;;;;;;2.17;1.57;;;;;;;;;;5099687;28;20205;-71
2023/02/03 01:41:22;;;;;;;5.20;1.77;;;;;;;;;;5099513;28;20259;-71
2023/02/03 01:43:51;;;;;;;7.17;1.83;;;;;;;;;;5089290;28;20228;-71
2023/02/03 01:46:24;;;;;;;6.73;1.60;;;;;;;;;;5099410;28;20221;-71
2023/02/03 01:48:53;;;;;;;4.20;2.00;;;;;;;;;;5099714;28;20237;-71
2023/02/03 01:51:22;;;;;;;3.17;1.60;;;;;;;;;;5099497;28;20205;-71
2023/02/03 01:53:51;;;;;;;4.53;1.40;;;;;;;;;;5099337;28;20231;-70
2023/02/03 01:56:21;;;;;;;6.17;1.80;;;;;;;;;;5099513;28;20209;-69
2023/02/03 01:58:49;;;;;;;6.57;2.00;;;;;;;;;;5099583;28;20201;-72
2023/02/03 02:01:18;;;;;;;4.70;2.07;;;;;;;;;;5098901;28;20202;-71
2023/02/03 02:03:47;;;;;;;3.03;1.83;;;;;;;;;;5099473;28;20237;-71
2023/02/03 02:06:15;;;;;;;4.03;1.70;;;;;;;;;;5098947;28;20581;-70
2023/02/03 02:08:46;;;;;;;6.17;1.90;;;;;;;;;;5098938;28;20225;-71
2023/02/03 02:11:13;;;;;;;7.73;2.00;;;;;;;;;;5099355;28;20205;-71
2023/02/03 02:13:44;;;;;;;6.37;1.93;;;;;;;;;;5098847;28;20635;-71
2023/02/03 02:16:14;;;;;;;3.40;1.90;;;;;;;;;;5099221;28;20206;-71
2023/02/03 02:18:50;;;;;;;2.37;1.70;;;;;;;;;;5098820;28;20652;-72
2023/02/03 02:21:25;;;;;;;9.50;2.43;;;;;;;;;;5089345;28;20205;-71
2023/02/03 02:24:08;;;;;;;3.53;1.60;;;;;;;;;;5098985;28;20225;-71
2023/02/03 02:26:51;;;;;;;4.43;1.80;;;;;;;;;;5098977;28;20209;-72
2023/02/03 02:29:34;;;;;;;5.33;1.93;;;;;;;;;;5098298;28;20228;-71
2023/02/03 02:32:14;;;;;;;5.43;1.70;;;;;;;;;;5054762;28;20210;-72
2023/02/03 02:34:48;;;;;;;6.10;1.77;;;;;;;;;;5098558;28;20232;-71
2023/02/03 02:37:22;;;;;;;5.73;1.83;;;;;;;;;;5098738;28;20208;-71
2023/02/03 02:39:54;;;;;;;6.57;1.77;;;;;;;;;;5098485;28;20576;-72
2023/02/03 02:42:26;;;;;;;8.43;1.73;;;;;;;;;;5098637;28;20201;-72
2023/02/03 02:44:58;;;;;;;4.47;1.70;;;;;;;;;;5098053;28;20206;-72
2023/02/03 02:47:27;;;;;;;4.60;1.67;;;;;;;;;;5098369;28;20704;-72
2023/02/03 02:49:59;;;;;;;3.70;1.60;;;;;;;;;;5098217;28;20213;-72
2023/02/03 02:52:29;;;;;;;5.87;1.67;;;;;;;;;;5098271;28;20267;-72
2023/02/03 02:55:00;;;;;;;3.20;1.53;;;;;;;;;;5098581;28;20673;-72
2023/02/03 02:57:29;;;;;;;1.83;1.40;;;;;;;;;;5098230;28;20228;-72
2023/02/03 02:59:57;;;;;;;2.80;1.33;;;;;;;;;;5098203;28;20209;-72
2023/02/03 03:02:33;;;;;;;5.70;1.97;;;;;;;;;;5098261;28;20206;-72
2023/02/03 03:05:03;;;;;;;3.00;1.30;;;;;;;;;;5098288;28;20209;-72
2023/02/03 03:07:35;;;;;;;2.73;1.70;;;;;;;;;;5098583;28;20211;-72
2023/02/03 03:10:05;;;;;;;2.40;1.47;;;;;;;;;;5098358;28;20209;-71
2023/02/03 03:12:35;;;;;;;5.70;1.60;;;;;;;;;;5098588;28;20213;-71
2023/02/03 03:15:05;;;;;;;4.07;1.47;;;;;;;;;;5097734;28;20653;-71
2023/02/03 03:17:37;;;;;;;5.67;1.67;;;;;;;;;;5097952;28;20615;-71
2023/02/03 03:20:07;;;;;;;3.23;1.23;;;;;;;;;;5098046;28;20216;-71
2023/02/03 03:22:40;;;;;;;5.33;1.50;;;;;;;;;;5098163;28;20205;-71
2023/02/03 03:25:12;;;;;;;6.67;1.20;;;;;;;;;;5097834;28;20564;-72
2023/02/03 03:27:42;;;;;;;2.30;1.50;;;;;;;;;;5097806;28;20209;-72
2023/02/03 03:30:15;;;;;;;2.30;1.00;;;;;;;;;;5097780;28;20206;-71
2023/02/03 03:32:44;;;;;;;2.80;1.43;;;;;;;;;;5097888;28;20248;-71
2023/02/03 03:35:12;;;;;;;2.97;1.10;;;;;;;;;;5097458;28;20263;-71
2023/02/03 03:37:42;;;;;;;4.00;1.37;;;;;;;;;;5098072;28;20221;-72
2023/02/03 03:40:12;;;;;;;2.07;1.13;;;;;;;;;;5098058;28;20205;-71
2023/02/03 03:42:45;;;;;;;4.20;1.40;;;;;;;;;;5100119;28;20225;-72
2023/02/03 03:45:16;;;;;;;4.43;1.33;;;;;;;;;;5088864;28;20209;-72
2023/02/03 03:47:47;;;;;;;3.33;1.33;;;;;;;;;;5101759;28;20205;-72
2023/02/03 03:50:17;;;;;;;2.47;1.13;;;;;;;;;;5101728;28;20209;-71
2023/02/03 03:52:46;;;;;;;4.47;1.30;;;;;;;;;;5101648;28;20252;-72
2023/02/03 03:55:14;;;;;;;5.07;2.17;;;;;;;;;;5101867;28;20212;-72
2023/02/03 03:57:45;;;;;;;5.30;1.63;;;;;;;;;;5101856;28;20205;-72
2023/02/03 04:00:15;;;;;;;6.70;1.60;;;;;;;;;;5101600;28;20220;-71
2023/02/03 04:02:46;;;;;;;3.07;1.27;;;;;;;;;;5101372;28;20225;-72
2023/02/03 04:05:15;;;;;;;7.03;1.43;;;;;;;;;;5101631;28;20205;-71
2023/02/03 04:07:44;;;;;;;4.37;1.30;;;;;;;;;;5101537;28;20213;-71
2023/02/03 04:10:16;;;;;;;2.20;1.30;;;;;;;;;;5101332;28;20225;-71
2023/02/03 04:12:44;;;;;;;3.80;1.50;;;;;;;;;;5101558;28;20233;-71
2023/02/03 04:15:11;;;;;;;5.13;1.43;;;;;;;;;;5100999;28;20710;-71
2023/02/03 04:17:41;;;;;;;4.07;1.20;;;;;;;;;;5101178;28;20216;-71
2023/02/03 04:20:10;;;;;;;5.73;1.77;;;;;;;;;;5100994;28;20213;-72
2023/02/03 04:22:39;;;;;;;3.43;1.27;;;;;;;;;;5101283;28;20212;-71
2023/02/03 04:25:07;;;;;;;4.23;1.93;;;;;;;;;;5101260;28;20217;-72
2023/02/03 04:27:35;;;;;;;4.40;1.37;;;;;;;;;;5101326;28;20218;-71
2023/02/03 04:30:04;;;;;;;6.00;1.53;;;;;;;;;;5100559;28;20309;-71
2023/02/03 04:32:34;;;;;;;2.93;1.23;;;;;;;;;;5101161;28;20205;-72
2023/02/03 04:35:02;;;;;;;2.03;1.57;;;;;;;;;;5100648;28;20249;-71
2023/02/03 04:37:30;;;;;;;3.77;1.20;;;;;;;;;;5099747;28;20610;-71
2023/02/03 04:39:59;;;;;;;4.60;1.33;;;;;;;;;;5099800;28;20205;-72
2023/02/03 04:42:27;;;;;;;6.90;1.50;;;;;;;;;;5099749;28;20206;-72
2023/02/03 04:44:55;;;;;;;8.10;2.17;;;;;;;;;;5099448;28;20262;-72
2023/02/03 04:47:23;;;;;;;3.10;1.30;;;;;;;;;;5099761;28;20220;-71
2023/02/03 04:49:51;;;;;;;4.23;1.23;;;;;;;;;;5099285;28;20623;-70
2023/02/03 04:52:19;;;;;;;4.03;1.50;;;;;;;;;;5099114;28;20208;-71
2023/02/03 04:54:46;;;;;;;2.97;1.23;;;;;;;;;;5099639;28;20205;-71
2023/02/03 04:57:16;;;;;;;3.20;1.13;;;;;;;;;;5099653;28;20202;-71
2023/02/03 04:59:44;;;;;;;4.53;1.60;;;;;;;;;;5099018;28;20208;-71
2023/02/03 05:02:11;;;;;;;4.50;1.43;;;;;;;;;;5099512;28;20212;-71
2023/02/03 05:04:40;;;;;;;3.13;1.77;;;;;;;;;;5097495;28;20218;-70
2023/02/03 05:07:08;;;;;;;2.20;1.30;;;;;;;;;;5097899;28;20653;-70
2023/02/03 05:09:36;;;;;;;5.20;1.40;;;;;;;;;;5098018;28;20222;-71
2023/02/03 05:12:04;;;;;;;5.70;1.43;;;;;;;;;;5095788;28;20202;-71
2023/02/03 05:14:34;;;;;;;2.73;1.73;;;;;;;;;;5098000;28;20221;-70
2023/02/03 05:17:02;;;;;;;6.30;1.67;;;;;;;;;;5094899;28;20201;-71
2023/02/03 05:19:30;;;;;;;3.83;1.60;;;;;;;;;;5097492;28;20276;-71
2023/02/03 05:21:58;;;;;;;2.80;1.70;;;;;;;;;;5097460;28;20233;-71
2023/02/03 05:24:26;;;;;;;3.87;1.57;;;;;;;;;;5097836;28;20250;-71
2023/02/03 05:26:53;;;;;;;1.90;1.20;;;;;;;;;;5097578;28;20201;-72
2023/02/03 05:29:21;;;;;;;4.97;2.00;;;;;;;;;;5097273;28;20221;-72
2023/02/03 05:31:51;;;;;;;4.43;1.63;;;;;;;;;;5097615;28;20205;-71
2023/02/03 05:34:19;;;;;;;5.00;1.50;;;;;;;;;;5097573;28;20300;-71
2023/02/03 05:36:46;;;;;;;7.57;1.53;;;;;;;;;;5053518;28;1270776;-72
2023/02/03 05:39:15;;;;;;;6.23;2.03;;;;;;;;;;5098732;28;20255;-72
2023/02/03 05:41:54;;;;;;;2.60;1.30;;;;;;;;;;5096362;28;20614;-70
2023/02/03 05:44:26;;;;;;;4.70;1.83;;;;;;;;;;5095933;28;20217;-71
2023/02/03 05:46:56;;;;;;;2.20;1.40;;;;;;;;;;5099184;28;20201;-71
2023/02/03 05:49:25;;;;;;;7.77;2.13;;;;;;;;;;5095777;28;20276;-72
2023/02/03 05:51:53;;;;;;;1.63;1.50;;;;;;;;;;5098229;28;20204;-71
2023/02/03 05:54:21;;;;;;;4.40;1.37;;;;;;;;;;5097803;28;20252;-72
2023/02/03 05:56:49;;;;;;;3.20;1.37;;;;;;;;;;5098162;28;20605;-72
2023/02/03 05:59:17;;;;;;;4.33;1.70;;;;;;;;;;5097970;28;20198;-71
2023/02/03 06:01:45;;;;;;;4.63;1.43;;;;;;;;;;5097985;28;20205;-72
2023/02/03 06:04:15;;;;;;;3.83;2.20;;;;;;;;;;5097451;28;20222;-72
2023/02/03 06:06:43;;;;;;;9.70;1.53;;;;;;;;;;5098220;28;20202;-72
2023/02/03 06:09:11;;;;;;;3.93;1.40;;;;;;;;;;5097961;28;20619;-72
2023/02/03 06:11:41;;;;;;;4.13;1.70;;;;;;;;;;5098138;28;20205;-72
2023/02/03 06:14:09;;;;;;;3.50;1.33;;;;;;;;;;5097592;28;20225;-72
2023/02/03 06:16:37;;;;;;;8.87;1.57;;;;;;;;;;5097610;28;20679;-72
2023/02/03 06:19:05;;;;;;;3.73;2.80;;;;;;;;;;5098031;28;20326;-72
2023/02/03 06:21:34;;;;;;;5.70;2.20;;;;;;;;;;5097937;28;20205;-71
2023/02/03 06:24:03;;;;;;;4.03;1.73;;;;;;;;;;5097565;28;20592;-72
2023/02/03 06:26:31;;;;;;;3.83;1.67;;;;;;;;;;5094873;28;20201;-72
2023/02/03 06:28:59;;;;;;;3.83;1.60;;;;;;;;;;5097543;28;20217;-71
2023/02/03 06:31:27;;;;;;;6.67;1.90;;;;;;;;;;5098299;28;20221;-71
2023/02/03 06:33:56;;;;;;;5.97;1.60;;;;;;;;;;5098396;28;20243;-72
2023/02/03 06:36:24;;;;;;;1.70;0.90;;;;;;;;;;5098266;28;20701;-71
2023/02/03 06:38:53;;;;;;;3.13;1.57;;;;;;;;;;5098589;28;20546;-71
2023/02/03 06:41:26;;;;;;;8.20;2.60;;;;;;;;;;5098518;28;20205;-71
2023/02/03 06:43:54;;;;;;;4.33;2.27;;;;;;;;;;5087726;28;20712;-71
2023/02/03 06:46:22;;;;;;;5.73;1.70;;;;;;;;;;5097217;28;20202;-72
2023/02/03 06:48:50;;;;;;;3.63;1.50;;;;;;;;;;5090380;28;20204;-72
2023/02/03 06:51:18;;;;;;;3.47;2.10;;;;;;;;;;5082038;28;20225;-70
2023/02/03 06:53:45;;;;;;;7.30;1.70;;;;;;;;;;5082156;28;20225;-70
2023/02/03 06:56:15;;;;;;;5.10;1.43;;;;;;;;;;5084228;28;20202;-70
2023/02/03 06:58:43;;;;;;;6.13;1.50;;;;;;;;;;5098345;28;20229;-72
2023/02/03 07:01:11;;;;;;;4.90;1.60;;;;;;;;;;5098246;28;20206;-71
2023/02/03 07:03:39;;;;;;;5.83;1.70;;;;;;;;;;5098015;28;20221;-71
2023/02/03 07:06:07;;;;;;;4.10;1.57;;;;;;;;;;5097982;28;20228;-71
2023/02/03 07:08:35;;;;;;;3.60;1.20;;;;;;;;;;5098361;28;20209;-71
2023/02/03 07:11:03;;;;;;;3.10;1.47;;;;;;;;;;5097761;28;20221;-71
2023/02/03 07:13:32;;;;;;;7.30;2.30;;;;;;;;;;5097250;28;20218;-71
2023/02/03 07:16:00;;;;;;;5.87;2.73;;;;;;;;;;5097090;28;20223;-71
2023/02/03 07:18:29;;;;;;;4.53;1.67;;;;;;;;;;5097679;28;20212;-72
2023/02/03 07:21:17;;;;;;;4.57;1.47;;;;;;;;;;5097530;28;20224;-72
2023/02/03 07:23:47;;;;;;;2.37;1.50;;;;;;;;;;5096893;28;20225;-72
2023/02/03 07:26:15;;;;;;;3.20;1.77;;;;;;;;;;5098053;28;20205;-71
2023/02/03 07:28:44;;;;;;;4.30;2.00;;;;;;;;;;5097553;28;20216;-70
2023/02/03 07:31:12;;;;;;;4.30;1.63;;;;;;;;;;5097783;28;20252;-70
2023/02/03 07:33:40;;;;;;;10.13;1.63;;;;;;;;;;5097589;28;20684;-71
2023/02/03 07:36:09;;;;;;;5.67;1.77;;;;;;;;;;5097423;28;20237;-71
2023/02/03 07:38:38;;;;;;;4.20;2.00;;;;;;;;;;5098037;28;20205;-72
2023/02/03 07:41:05;;;;;;;5.67;1.70;;;;;;;;;;5097679;28;20209;-71
2023/02/03 07:43:33;;;;;;;3.37;1.77;;;;;;;;;;5097765;28;20221;-72
2023/02/03 07:46:03;;;;;;;9.23;2.43;;;;;;;;;;5097475;28;20214;-70
2023/02/03 07:48:31;;;;;;;3.50;1.87;;;;;;;;;;5097574;28;20656;-70
2023/02/03 07:50:59;;;;;;;5.10;1.80;;;;;;;;;;5097337;28;20237;-72
2023/02/03 07:53:26;;;;;;;2.00;1.80;;;;;;;;;;5097738;28;20221;-72
2023/02/03 07:55:54;;;;;;;9.87;1.60;;;;;;;;;;5097541;28;20202;-71
2023/02/03 07:58:22;;;;;;;4.50;1.93;;;;;;;;;;5097402;28;20275;-71
2023/02/03 08:00:50;;;;;;;5.90;2.40;;;;;;;;;;5096759;28;20209;-72
2023/02/03 08:03:19;;;;;;;4.40;2.00;;;;;;;;;;5097702;28;20229;-72
2023/02/03 08:05:47;;;;;;;3.00;1.60;;;;;;;;;;5097411;28;20209;-68
2023/02/03 08:08:15;;;;;;;4.93;2.17;;;;;;;;;;5097563;28;20216;-67
2023/02/03 08:10:43;;;;;;;4.47;1.50;;;;;;;;;;5097308;28;20289;-68
2023/02/03 08:13:11;;;;;;;3.23;2.07;;;;;;;;;;5097558;28;20229;-68
2023/02/03 08:15:39;;;;;;;6.17;2.07;;;;;;;;;;5097318;28;20202;-66
2023/02/03 08:18:08;;;;;;;3.00;1.80;;;;;;;;;;5097269;28;20210;-67
2023/02/03 08:20:37;;;;;;;259.20;41.67;;;;;;;;;;5097440;28;20202;-70
2023/02/03 08:23:05;;;;;;;16.77;6.93;;;;;;;;;;5097464;28;20290;-68
2023/02/03 08:25:33;;;;;;;6.93;3.10;;;;;;;;;;5097001;28;20209;-69
2023/02/03 08:28:01;;;;;;;5.47;2.77;;;;;;;;;;5098431;28;20209;-70
2023/02/03 08:30:30;;;;;;;5.83;2.07;;;;;;;;;;5100250;28;20236;-71
2023/02/03 08:32:58;;;;;;;6.03;2.20;;;;;;;;;;5100843;28;20249;-69
2023/02/03 08:35:26;;;;;;;5.50;2.20;;;;;;;;;;5100770;28;20248;-71
2023/02/03 08:37:55;;;;;;;3.83;2.30;;;;;;;;;;5100086;28;20242;-69
2023/02/03 08:40:23;;;;;;;6.50;2.30;;;;;;;;;;5100920;28;20213;-71
2023/02/03 08:42:51;;;;;;;1.67;1.27;;;;;;;;;;5098942;28;20692;-70
2023/02/03 08:45:19;;;;;;;7.77;1.73;;;;;;;;;;5099909;28;20634;-69
2023/02/03 08:47:47;;;;;;;3.33;1.93;;;;;;;;;;5100389;28;20256;-70
2023/02/03 08:50:15;;;;;;;3.57;1.63;;;;;;;;;;5100692;28;20206;-69
2023/02/03 08:52:43;;;;;;;4.00;1.40;;;;;;;;;;5099117;28;20225;-70
2023/02/03 08:55:13;;;;;;;2.40;1.50;;;;;;;;;;5099349;28;20202;-69
2023/02/03 08:57:41;;;;;;;4.20;1.33;;;;;;;;;;5099436;28;20197;-70
2023/02/03 09:00:09;;;;;;;1.33;1.23;;;;;;;;;;5099023;28;20653;-68
2023/02/03 09:02:37;;;;;;;2.87;1.43;;;;;;;;;;5096615;28;20724;-69
2023/02/03 09:05:06;;;;;;;3.77;1.40;;;;;;;;;;5099105;28;20240;-69
2023/02/03 09:07:34;;;;;;;3.00;1.30;;;;;;;;;;5097122;28;20728;-69
2023/02/03 09:10:02;;;;;;;2.57;1.97;;;;;;;;;;5099206;28;20202;-68
2023/02/03 09:12:31;;;;;;;7.70;1.67;;;;;;;;;;5098598;28;20230;-68
2023/02/03 09:14:59;;;;;;;3.73;1.80;;;;;;;;;;5098572;28;20576;-67
2023/02/03 09:17:27;;;;;;;4.97;1.63;;;;;;;;;;5098937;28;20201;-71
2023/02/03 09:19:55;;;;;;;6.57;2.10;;;;;;;;;;5096169;28;20205;-70
2023/02/03 09:22:23;;;;;;;3.03;1.20;;;;;;;;;;5098761;28;20197;-71
2023/02/03 09:24:51;;;;;;;4.43;1.83;;;;;;;;;;5099409;28;20194;-71
2023/02/03 09:27:19;;;;;;;3.23;1.40;;;;;;;;;;5099439;28;20637;-70
2023/02/03 09:29:49;;;;;;;3.20;1.40;;;;;;;;;;5099368;28;20199;-69
2023/02/03 09:32:17;;;;;;;2.77;1.07;;;;;;;;;;5100000;28;20255;-69
2023/02/03 09:34:45;;;;;;;2.23;1.20;;;;;;;;;;5099454;28;20205;-69
2023/02/03 09:37:13;;;;;;;1.40;1.30;;;;;;;;;;5099901;28;20244;-69
2023/02/03 09:39:41;;;;;;;3.40;1.23;;;;;;;;;;5098076;28;20676;-69
2023/02/03 09:42:24;;;;;;;1.47;1.20;;;;;;;;;;5099741;28;20208;-69
2023/02/03 09:44:58;;;;;;;2.03;1.07;;;;;;;;;;5099477;28;20206;-69
2023/02/03 09:47:28;;;;;;;1.03;0.90;;;;;;;;;;5099731;28;20217;-69
2023/02/03 09:49:58;;;;;;;1.00;0.90;;;;;;;;;;5099322;28;20579;-69
2023/02/03 09:52:27;;;;;;;2.60;1.30;;;;;;;;;;5099274;28;20229;-68
2023/02/03 09:54:58;;;;;;;2.30;1.07;;;;;;;;;;5099627;28;20214;-73
2023/02/03 09:57:28;;;;;;;1.07;0.87;;;;;;;;;;5099517;28;20214;-69
2023/02/03 09:59:58;;;;;;;1.20;1.10;;;;;;;;;;5099184;28;20240;-71
2023/02/03 10:02:38;;;;;;;2.13;0.93;;;;;;;;;;5098571;28;20198;-70
2023/02/03 10:05:11;;;;;;;1.17;1.07;;;;;;;;;;5095933;28;20641;-70
2023/02/03 10:07:43;;;;;;;1.57;1.10;;;;;;;;;;5096225;28;20271;-72
2023/02/03 10:10:16;;;;;;;1.47;0.87;;;;;;;;;;5096031;28;20209;-73
2023/02/03 10:12:52;;;;;;;3.80;1.13;;;;;;;;;;5097346;28;20285;-73
2023/02/03 10:15:29;;;;;;;2.80;1.23;;;;;;;;;;5097882;28;20653;-74
2023/02/03 10:18:00;;;;;;;1.70;0.90;;;;;;;;;;5098781;28;20205;-75
2023/02/03 10:20:35;;;;;;;3.67;0.93;;;;;;;;;;5098775;28;20255;-74
2023/02/03 10:23:07;;;;;;;2.43;1.23;;;;;;;;;;5098705;28;20229;-74
2023/02/03 10:25:38;;;;;;;1.37;1.13;;;;;;;;;;5098807;28;20233;-74
2023/02/03 10:28:13;;;;;;;1.47;0.93;;;;;;;;;;5098833;28;20292;-74
2023/02/03 10:30:46;;;;;;;5.00;1.27;;;;;;;;;;5098428;28;20209;-74
2023/02/03 10:33:16;;;;;;;2.80;1.23;;;;;;;;;;5098379;28;20265;-74
2023/02/03 10:35:47;;;;;;;1.10;1.00;;;;;;;;;;5098335;28;20633;-74
2023/02/03 10:38:20;;;;;;;0.97;0.97;;;;;;;;;;5098661;28;20232;-74
2023/02/03 10:40:48;;;;;;;1.80;0.80;;;;;;;;;;5098670;28;20210;-74
2023/02/03 10:46:03;;;;;;;2.83;0.90;;;;;;;;;;5097941;28;20211;-73
2023/02/03 10:48:31;;;;;;;4.47;0.80;;;;;;;;;;5098249;28;20580;-74
2023/02/03 10:50:59;;;;;;;8.57;1.50;;;;;;;;;;5098009;28;20205;-73
2023/02/03 10:53:32;;;;;;;1.60;1.00;;;;;;;;;;5098114;28;20720;-74
2023/02/03 10:56:02;;;;;;;2.87;1.30;;;;;;;;;;5098097;28;20217;-74
2023/02/03 10:58:32;;;;;;;8.60;1.60;;;;;;;;;;5098291;28;20205;-73
2023/02/03 11:01:08;;;;;;;4.30;1.30;;;;;;;;;;5097934;28;20673;-73
2023/02/03 11:03:36;;;;;;;1.70;1.10;;;;;;;;;;5098241;28;20220;-74
2023/02/03 11:06:05;;;;;;;2.57;0.80;;;;;;;;;;5098000;28;20583;-73
2023/02/03 11:08:34;;;;;;;0.70;0.70;;;;;;;;;;5098275;28;20237;-73
2023/02/03 11:11:03;;;;;;;0.90;0.90;;;;;;;;;;5098009;28;20212;-73
2023/02/03 11:13:31;;;;;;;1.90;0.83;;;;;;;;;;5098052;28;20225;-73
2023/02/03 11:16:00;;;;;;;1.13;1.00;;;;;;;;;;5097925;28;20209;-73
2023/02/03 11:18:41;;;;;;;1.10;1.00;;;;;;;;;;5097887;28;20212;-72
2023/02/03 11:21:10;;;;;;;1.30;1.10;;;;;;;;;;5097909;28;20213;-72
2023/02/03 11:23:42;;;;;;;1.27;0.97;;;;;;;;;;5098312;28;20309;-72
2023/02/03 11:26:13;;;;;;;1.20;1.10;;;;;;;;;;5098377;28;20213;-72
2023/02/03 11:28:42;;;;;;;1.67;0.90;;;;;;;;;;5097924;28;20647;-72
2023/02/03 11:31:18;;;;;;;3.80;1.10;;;;;;;;;;5097735;28;20205;-72
2023/02/03 11:33:52;;;;;;;0.87;0.87;;;;;;;;;;5097770;28;20229;-72
2023/02/03 11:36:20;;;;;;;2.57;1.10;;;;;;;;;;5097506;28;20237;-73
2023/02/03 11:38:48;;;;;;;2.13;1.13;;;;;;;;;;5098068;28;20201;-72
2023/02/03 11:41:17;;;;;;;1.57;1.17;;;;;;;;;;5097654;28;20680;-72
2023/02/03 11:43:45;;;;;;;2.43;0.97;;;;;;;;;;5097555;28;20213;-73
2023/02/03 11:46:14;;;;;;;1.17;1.07;;;;;;;;;;5097620;28;20209;-72
2023/02/03 11:48:51;;;;;;;2.20;1.03;;;;;;;;;;5097827;28;20237;-72
2023/02/03 11:51:26;;;;;;;2.80;0.90;;;;;;;;;;5097424;28;20688;-72
2023/02/03 11:54:02;;;;;;;1.10;1.00;;;;;;;;;;5097660;28;20311;-71
2023/02/03 11:56:32;;;;;;;1.97;0.97;;;;;;;;;;5097823;28;20209;-71
2023/02/03 11:59:07;;;;;;;1.67;1.00;;;;;;;;;;5097238;28;20229;-71
2023/02/03 12:01:58;;;;;;;1.17;0.80;;;;;;;;;;5097686;28;20291;-71
2023/02/03 12:04:32;;;;;;;1.00;1.00;;;;;;;;;;5100976;28;20316;-71
2023/02/03 12:07:22;;;;;;;1.00;0.90;;;;;;;;;;5101344;28;20212;-71
2023/02/03 12:09:53;;;;;;;3.80;1.40;;;;;;;;;;5101171;28;20235;-71
2023/02/03 12:12:28;;;;;;;2.23;1.10;;;;;;;;;;5101000;28;20610;-71
2023/02/03 12:15:02;;;;;;;1.13;1.03;;;;;;;;;;5101110;28;20288;-71
2023/02/03 12:17:35;;;;;;;1.73;1.33;;;;;;;;;;5101183;28;20551;-71
2023/02/03 12:20:12;;;;;;;5.00;1.27;;;;;;;;;;5101281;28;20209;-71
2023/02/03 12:22:44;;;;;;;1.97;1.30;;;;;;;;;;5101352;28;20231;-71
2023/02/03 12:25:19;;;;;;;4.17;1.57;;;;;;;;;;5101017;28;20248;-71
2023/02/03 12:27:53;;;;;;;1.70;1.13;;;;;;;;;;5100975;28;20266;-72
2023/02/03 12:30:22;;;;;;;1.67;1.20;;;;;;;;;;5100967;28;20258;-72
2023/02/03 12:32:51;;;;;;;2.00;1.20;;;;;;;;;;5100862;28;20236;-72
2023/02/03 12:35:23;;;;;;;3.87;1.30;;;;;;;;;;5100566;28;20336;-71
2023/02/03 12:37:56;;;;;;;1.20;1.10;;;;;;;;;;5101117;28;20206;-72
2023/02/03 12:40:28;;;;;;;4.17;1.63;;;;;;;;;;5101078;28;20292;-71
2023/02/03 12:42:59;;;;;;;1.20;1.10;;;;;;;;;;5100892;28;20221;-72
2023/02/03 12:45:29;;;;;;;2.53;1.13;;;;;;;;;;5100728;28;20201;-72
2023/02/03 12:47:58;;;;;;;2.00;1.17;;;;;;;;;;5100765;28;20208;-72
2023/02/03 12:50:29;;;;;;;2.20;0.93;;;;;;;;;;5100727;28;20206;-71
2023/02/03 12:53:03;;;;;;;1.00;0.87;;;;;;;;;;5100524;28;20293;-72
2023/02/03 12:55:34;;;;;;;1.50;1.20;;;;;;;;;;5100557;28;20284;-72
2023/02/03 12:58:04;;;;;;;4.07;1.00;;;;;;;;;;5100334;28;20237;-72
2023/02/03 13:00:39;;;;;;;3.07;1.03;;;;;;;;;;5100601;28;20229;-72
2023/02/03 13:03:12;;;;;;;1.77;1.10;;;;;;;;;;5100319;28;20270;-72
2023/02/03 13:05:42;;;;;;;1.63;1.20;;;;;;;;;;5100473;28;20244;-73
2023/02/03 13:08:16;;;;;;;1.33;0.90;;;;;;;;;;5100503;28;20205;-73
2023/02/03 13:10:47;;;;;;;1.57;1.20;;;;;;;;;;5100617;28;20232;-73
2023/02/03 13:13:17;;;;;;;2.03;1.00;;;;;;;;;;5100121;28;20269;-73
2023/02/03 13:15:47;;;;;;;1.00;1.00;;;;;;;;;;5099735;28;20237;-73
2023/02/03 13:18:20;;;;;;;2.83;1.20;;;;;;;;;;5100377;28;20214;-73
2023/02/03 13:20:48;;;;;;;2.37;0.90;;;;;;;;;;5099855;28;20245;-73
2023/02/03 13:23:17;;;;;;;1.07;1.00;;;;;;;;;;5099839;28;20225;-72
2023/02/03 13:25:51;;;;;;;1.10;1.00;;;;;;;;;;5100195;28;20209;-72
2023/02/03 13:28:22;;;;;;;1.50;1.13;;;;;;;;;;5100094;28;20208;-72
2023/02/03 13:31:06;;;;;;;1.80;1.30;;;;;;;;;;5099705;28;20236;-73
2023/02/03 13:33:55;;;;;;;3.97;1.13;;;;;;;;;;5099389;28;20292;-73
2023/02/03 13:36:32;;;;;;;2.60;1.30;;;;;;;;;;5066063;28;20308;-74
2023/02/03 13:39:15;;;;;;;3.13;1.23;;;;;;;;;;5099689;28;20205;-74
2023/02/03 13:41:46;;;;;;;2.63;1.30;;;;;;;;;;5099899;28;20213;-73
2023/02/03 13:44:15;;;;;;;2.30;1.50;;;;;;;;;;5099584;28;20256;-73
2023/02/03 13:46:47;;;;;;;1.40;1.23;;;;;;;;;;5099504;28;20240;-74
2023/02/03 13:49:18;;;;;;;3.50;1.80;;;;;;;;;;5099339;28;20205;-74
2023/02/03 13:51:46;;;;;;;1.27;1.10;;;;;;;;;;5099785;28;20215;-75
2023/02/03 13:54:17;;;;;;;2.50;1.40;;;;;;;;;;5099188;28;20674;-74
2023/02/03 13:56:53;;;;;;;0.97;0.93;;;;;;;;;;5098628;28;20681;-75
2023/02/03 13:59:30;;;;;;;1.90;1.37;;;;;;;;;;5097585;28;20640;-74
2023/02/03 14:02:15;;;;;;;1.37;1.10;;;;;;;;;;5096786;28;20209;-75
2023/02/03 14:04:53;;;;;;;2.33;1.10;;;;;;;;;;5095807;28;20232;-75
2023/02/03 14:07:32;;;;;;;1.83;1.37;;;;;;;;;;5097112;28;20233;-74
2023/02/03 14:10:15;;;;;;;1.23;1.00;;;;;;;;;;5097102;28;20254;-74
2023/02/03 14:12:58;;;;;;;3.00;1.47;;;;;;;;;;5095908;28;20221;-75
2023/02/03 14:15:31;;;;;;;1.70;1.10;;;;;;;;;;5097401;28;20223;-74
2023/02/03 14:18:05;;;;;;;1.20;1.10;;;;;;;;;;5097787;28;20197;-74
2023/02/03 14:20:49;;;;;;;1.90;1.10;;;;;;;;;;5095573;28;20193;-74
2023/02/03 14:23:20;;;;;;;3.37;1.40;;;;;;;;;;5095971;28;20597;-74
2023/02/03 14:25:51;;;;;;;3.23;1.27;;;;;;;;;;5097079;28;20197;-74
2023/02/03 14:28:22;;;;;;;1.83;1.40;;;;;;;;;;5097319;28;20193;-74
2023/02/03 14:31:17;;;;;;;3.80;1.77;;;;;;;;;;5094890;28;20229;-74
2023/02/03 14:33:54;;;;;;;2.60;1.67;;;;;;;;;;5067912;28;20233;-74
2023/02/03 14:36:30;;;;;;;1.83;1.70;;;;;;;;;;5097221;28;20232;-74
2023/02/03 14:39:00;;;;;;;2.40;1.57;;;;;;;;;;5095928;28;20224;-74
2023/02/03 14:41:33;;;;;;;2.30;1.50;;;;;;;;;;5097093;28;20218;-74
2023/02/03 14:44:08;;;;;;;2.90;1.40;;;;;;;;;;5096932;28;20245;-75
2023/02/03 14:46:43;;;;;;;1.60;1.10;;;;;;;;;;5096651;28;20571;-75
2023/02/03 14:49:28;;;;;;;2.73;1.60;;;;;;;;;;5098183;28;20212;-74
2023/02/03 14:52:04;;;;;;;2.50;1.47;;;;;;;;;;5098068;28;20571;-74
2023/02/03 14:54:42;;;;;;;3.77;1.57;;;;;;;;;;5098008;28;20265;-72
2023/02/03 14:57:18;;;;;;;1.47;1.37;;;;;;;;;;5098351;28;20201;-72
2023/02/03 14:59:49;;;;;;;2.23;1.60;;;;;;;;;;5097594;28;20553;-74
2023/02/03 15:02:19;;;;;;;2.37;1.20;;;;;;;;;;5097826;28;20209;-74
2023/02/03 15:04:49;;;;;;;2.67;2.47;;;;;;;;;;5098261;28;20233;-72
2023/02/03 15:07:48;;;;;;;3.67;1.60;;;;;;;;;;5098107;28;20669;-73